createdAt,value
2022-12-17T00:02:33.083Z,100.00
2022-12-17T00:05:54.298Z,100.00
2022-12-17T00:09:17.321Z,100.00
2022-12-17T00:12:39.740Z,100.00
2022-12-17T00:16:00.907Z,100.00
2022-12-17T00:19:22.140Z,100.00
2022-12-17T00:22:43.387Z,100.00
2022-12-17T00:26:09.879Z,100.00
2022-12-17T00:29:32.736Z,100.00
2022-12-17T00:33:05.305Z,100.00
2022-12-17T00:36:27.227Z,100.00
2022-12-17T00:39:48.470Z,100.00
2022-12-17T00:43:18.382Z,100.00
2022-12-17T00:46:40.060Z,100.00
2022-12-17T00:50:03.822Z,100.00
2022-12-17T00:53:24.961Z,100.00
2022-12-17T00:56:46.121Z,100.00
2022-12-17T01:00:07.267Z,100.00
2022-12-17T01:03:46.083Z,100.00
2022-12-17T01:07:07.391Z,100.00
2022-12-17T01:10:28.503Z,100.00
2022-12-17T01:13:49.641Z,100.00
2022-12-17T01:17:10.968Z,100.00
2022-12-17T01:20:33.858Z,100.00
2022-12-17T01:23:55.029Z,100.00
2022-12-17T01:27:17.907Z,100.00
2022-12-17T01:30:39.190Z,100.00
2022-12-17T01:34:00.208Z,100.00
2022-12-17T01:37:22.877Z,100.00
2022-12-17T01:40:43.840Z,100.00
2022-12-17T01:44:04.996Z,100.00
2022-12-17T01:47:28.564Z,100.00
2022-12-17T01:50:52.972Z,100.00
2022-12-17T01:54:15.518Z,100.00
2022-12-17T01:57:41.908Z,100.00
2022-12-17T02:01:04.249Z,100.00
2022-12-17T02:04:26.189Z,100.00
2022-12-17T02:08:04.304Z,100.00
2022-12-17T02:11:37.490Z,100.00
2022-12-17T02:15:03.536Z,100.00
2022-12-17T02:18:30.274Z,100.00
2022-12-17T02:21:55.807Z,100.00
2022-12-17T02:25:23.281Z,100.00
2022-12-17T02:28:46.669Z,100.00
2022-12-17T02:32:10.656Z,100.00
2022-12-17T02:35:35.987Z,100.00
2022-12-17T02:38:57.670Z,100.00
2022-12-17T02:42:20.398Z,100.00
2022-12-17T02:45:43.725Z,100.00
2022-12-17T02:49:05.301Z,100.00
2022-12-17T02:52:33.281Z,100.00
2022-12-17T02:55:55.844Z,100.00
2022-12-17T02:59:17.098Z,100.00
2022-12-17T03:02:40.275Z,100.00
2022-12-17T03:06:02.129Z,100.00
2022-12-17T03:09:23.321Z,100.00
2022-12-17T03:12:44.462Z,100.00
2022-12-17T03:16:05.622Z,100.00
2022-12-17T03:19:29.576Z,100.00
2022-12-17T03:22:50.728Z,100.00
2022-12-17T03:26:11.931Z,100.00
2022-12-17T03:29:33.157Z,100.00
2022-12-17T03:32:54.119Z,100.00
2022-12-17T03:36:16.856Z,100.00
2022-12-17T03:39:37.997Z,100.00
2022-12-17T03:42:59.293Z,100.00
2022-12-17T03:46:21.106Z,100.00
2022-12-17T03:49:42.304Z,100.00
2022-12-17T03:53:05.022Z,100.00
2022-12-17T03:56:26.078Z,100.00
2022-12-17T03:59:46.937Z,100.00
2022-12-17T04:03:07.957Z,100.00
2022-12-17T04:06:29.032Z,100.00
2022-12-17T04:09:51.857Z,100.00
2022-12-17T04:13:12.912Z,100.00
2022-12-17T04:16:34.052Z,100.00
2022-12-17T04:19:55.155Z,100.00
2022-12-17T04:23:16.180Z,100.00
2022-12-17T04:26:38.550Z,100.00
2022-12-17T04:29:59.375Z,100.00
2022-12-17T04:33:20.266Z,100.00
2022-12-17T04:36:41.525Z,100.00
2022-12-17T04:40:02.627Z,100.00
2022-12-17T04:43:29.759Z,100.00
2022-12-17T04:46:50.480Z,100.00
2022-12-17T04:50:11.809Z,100.00
2022-12-17T04:53:33.014Z,100.00
2022-12-17T04:56:54.331Z,100.00
2022-12-17T05:00:16.983Z,100.00
2022-12-17T05:03:38.191Z,100.00
2022-12-17T05:06:59.463Z,100.00
2022-12-17T05:10:20.240Z,100.00
2022-12-17T05:13:41.471Z,100.00
2022-12-17T05:17:03.702Z,100.00
2022-12-17T05:20:25.082Z,100.00
2022-12-17T05:23:48.092Z,100.00
2022-12-17T05:27:08.902Z,100.00
2022-12-17T05:30:30.746Z,100.00
2022-12-17T05:33:53.092Z,100.00
2022-12-17T05:37:14.328Z,100.00
2022-12-17T05:40:50.071Z,100.00
2022-12-17T05:44:11.075Z,100.00
2022-12-17T05:47:31.809Z,100.00
2022-12-17T05:50:54.227Z,100.00
2022-12-17T05:54:15.550Z,100.00
2022-12-17T05:57:36.618Z,100.00
2022-12-17T06:01:12.477Z,100.00
2022-12-17T06:04:33.455Z,100.00
2022-12-17T06:07:55.761Z,100.00
2022-12-17T06:11:17.729Z,100.00
2022-12-17T06:14:38.597Z,100.00
2022-12-17T06:17:59.681Z,100.00
2022-12-17T06:21:20.587Z,100.00
2022-12-17T06:24:46.146Z,100.00
2022-12-17T06:28:07.628Z,100.00
2022-12-17T06:31:28.788Z,100.00
2022-12-17T06:34:50.125Z,100.00
2022-12-17T06:38:17.281Z,100.00
2022-12-17T06:41:51.541Z,100.00
2022-12-17T06:45:13.217Z,100.00
2022-12-17T06:48:34.068Z,100.00
2022-12-17T06:51:55.260Z,100.00
2022-12-17T06:55:16.327Z,100.00
2022-12-17T06:58:39.027Z,100.00
2022-12-17T07:02:00.063Z,100.00
2022-12-17T07:05:21.338Z,100.00
2022-12-17T07:08:42.358Z,100.00
2022-12-17T07:12:03.689Z,100.00
2022-12-17T07:15:26.860Z,100.00
2022-12-17T07:18:47.975Z,100.00
2022-12-17T07:22:09.092Z,100.00
2022-12-17T07:25:30.097Z,100.00
2022-12-17T07:28:51.162Z,100.00
2022-12-17T07:32:13.650Z,100.00
2022-12-17T07:35:34.791Z,100.00
2022-12-17T07:38:55.887Z,100.00
2022-12-17T07:42:16.848Z,100.00
2022-12-17T07:45:38.168Z,100.00
2022-12-17T07:49:06.417Z,100.00
2022-12-17T07:52:27.191Z,100.00
2022-12-17T07:55:48.364Z,100.00
2022-12-17T07:59:09.141Z,100.00
2022-12-17T08:02:30.452Z,100.00
2022-12-17T08:05:53.248Z,100.00
2022-12-17T08:09:14.382Z,100.00
2022-12-17T08:12:35.401Z,100.00
2022-12-17T08:15:56.498Z,100.00
2022-12-17T08:19:17.237Z,100.00
2022-12-17T08:22:39.173Z,100.00
2022-12-17T08:26:00.089Z,100.00
2022-12-17T08:29:21.221Z,100.00
2022-12-17T08:32:42.381Z,100.00
2022-12-17T08:36:10.851Z,100.00
2022-12-17T08:39:33.152Z,100.00
2022-12-17T08:42:54.327Z,100.00
2022-12-17T08:46:15.197Z,100.00
2022-12-17T08:49:36.331Z,100.00
2022-12-17T08:52:57.348Z,100.00
2022-12-17T08:56:19.982Z,100.00
2022-12-17T08:59:40.949Z,100.00
2022-12-17T09:03:02.127Z,100.00
2022-12-17T09:06:23.951Z,100.00
2022-12-17T09:09:45.122Z,100.00
2022-12-17T09:13:07.808Z,100.00
2022-12-17T09:16:28.966Z,100.00
2022-12-17T09:19:50.101Z,100.00
2022-12-17T09:23:11.062Z,100.00
2022-12-17T09:26:32.223Z,100.00
2022-12-17T09:29:55.102Z,100.00
2022-12-17T09:33:16.021Z,100.00
2022-12-17T09:36:37.301Z,100.00
2022-12-17T09:39:58.128Z,100.00
2022-12-17T09:43:24.998Z,100.00
2022-12-17T09:46:55.208Z,100.00
2022-12-17T09:50:17.370Z,100.00
2022-12-17T09:53:43.011Z,100.00
2022-12-17T09:57:04.137Z,100.00
2022-12-17T10:00:33.166Z,100.00
2022-12-17T10:04:05.320Z,100.00
2022-12-17T10:07:30.438Z,100.00
2022-12-17T10:10:52.680Z,100.00
2022-12-17T10:14:14.368Z,100.00
2022-12-17T10:17:37.967Z,100.00
2022-12-17T10:21:05.279Z,100.00
2022-12-17T10:24:28.528Z,100.00
2022-12-17T10:27:46.147Z,100.00
2022-12-17T10:31:07.349Z,100.00
2022-12-17T10:34:35.099Z,100.00
2022-12-17T10:37:57.428Z,100.00
2022-12-17T10:41:18.557Z,100.00
2022-12-17T10:44:41.523Z,100.00
2022-12-17T10:48:03.069Z,100.00
2022-12-17T10:51:33.565Z,100.00
2022-12-17T10:54:56.437Z,100.00
2022-12-17T10:58:22.201Z,100.00
2022-12-17T11:01:45.413Z,100.00
2022-12-17T11:05:11.239Z,100.00
2022-12-17T11:08:33.921Z,100.00
2022-12-17T11:11:57.108Z,100.00
2022-12-17T11:15:27.791Z,99.87
2022-12-17T11:18:55.771Z,100.00
2022-12-17T11:22:22.217Z,100.00
2022-12-17T11:25:52.763Z,99.34
2022-12-17T11:29:17.358Z,99.39
2022-12-17T11:33:04.202Z,98.51
2022-12-17T11:36:38.441Z,97.76
2022-12-17T11:40:07.522Z,97.60
2022-12-17T11:43:38.328Z,98.77
2022-12-17T11:47:06.680Z,98.50
2022-12-17T11:50:39.497Z,99.17
2022-12-17T11:54:15.792Z,100.00
2022-12-17T11:57:43.617Z,100.00
2022-12-17T12:01:15.881Z,100.00
2022-12-17T12:04:56.351Z,100.00
2022-12-17T12:08:28.546Z,100.00
2022-12-17T12:11:57.799Z,100.00
2022-12-17T12:15:30.121Z,100.00
2022-12-17T12:19:03.327Z,100.00
2022-12-17T12:22:30.971Z,100.00
2022-12-17T12:25:58.041Z,100.00
2022-12-17T12:29:28.187Z,100.00
2022-12-17T12:33:09.631Z,100.00
2022-12-17T12:36:34.780Z,100.00
2022-12-17T12:40:11.155Z,100.00
2022-12-17T12:43:39.761Z,100.00
2022-12-17T12:47:06.727Z,100.00
2022-12-17T12:50:38.018Z,98.87
2022-12-17T12:53:59.264Z,98.43
2022-12-17T12:57:21.970Z,97.55
2022-12-17T13:00:50.250Z,97.07
2022-12-17T13:04:14.437Z,95.86
2022-12-17T13:07:26.706Z,95.32
2022-12-17T13:10:32.595Z,95.05
2022-12-17T13:13:56.134Z,95.10
2022-12-17T13:17:05.988Z,95.80
2022-12-17T13:20:28.648Z,95.18
2022-12-17T13:23:36.698Z,94.22
2022-12-17T13:26:47.148Z,93.21
2022-12-17T13:29:52.260Z,93.21
2022-12-17T13:33:08.862Z,92.72
2022-12-17T13:36:21.787Z,94.09
2022-12-17T13:39:38.148Z,94.00
2022-12-17T13:42:42.466Z,94.01
2022-12-17T13:45:48.285Z,95.24
2022-12-17T13:48:56.551Z,96.73
2022-12-17T13:52:11.163Z,97.59
2022-12-17T13:55:19.978Z,98.54
2022-12-17T13:58:26.221Z,97.45
2022-12-17T14:01:32.468Z,98.21
2022-12-17T14:04:36.302Z,98.45
2022-12-17T14:07:42.181Z,98.44
2022-12-17T14:10:53.058Z,98.57
2022-12-17T14:13:57.390Z,100.00
2022-12-17T14:17:03.117Z,100.00
2022-12-17T14:20:14.938Z,100.00
2022-12-17T14:23:28.401Z,100.00
2022-12-17T14:26:32.110Z,100.00
2022-12-17T14:29:35.962Z,100.00
2022-12-17T14:32:45.163Z,100.00
2022-12-17T14:35:54.709Z,100.00
2022-12-17T14:39:02.572Z,100.00
2022-12-17T14:42:29.849Z,100.00
2022-12-17T14:45:53.748Z,100.00
2022-12-17T14:49:04.170Z,100.00
2022-12-17T14:52:14.652Z,100.00
2022-12-17T14:55:36.927Z,100.00
2022-12-17T14:58:47.148Z,100.00
2022-12-17T15:01:55.740Z,100.00
2022-12-17T15:05:04.078Z,100.00
2022-12-17T15:08:07.832Z,100.00
2022-12-17T15:11:13.882Z,100.00
2022-12-17T15:14:17.608Z,100.00
2022-12-17T15:17:21.429Z,100.00
2022-12-17T15:20:26.791Z,100.00
2022-12-17T15:23:31.687Z,99.86
2022-12-17T15:26:35.410Z,99.76
2022-12-17T15:29:39.041Z,99.72
2022-12-17T15:32:43.167Z,99.46
2022-12-17T15:35:48.484Z,100.00
2022-12-17T15:38:52.760Z,100.00
2022-12-17T15:42:13.921Z,100.00
2022-12-17T15:45:18.248Z,100.00
2022-12-17T15:48:24.037Z,100.00
2022-12-17T15:51:29.223Z,100.00
2022-12-17T15:54:33.023Z,100.00
2022-12-17T15:57:36.881Z,100.00
2022-12-17T16:00:40.728Z,100.00
2022-12-17T16:03:44.718Z,100.00
2022-12-17T16:06:49.980Z,100.00
2022-12-17T16:09:53.922Z,100.00
2022-12-17T16:12:57.741Z,100.00
2022-12-17T16:16:04.168Z,100.00
2022-12-17T16:19:08.421Z,100.00
2022-12-17T16:22:13.661Z,100.00
2022-12-17T16:25:17.455Z,100.00
2022-12-17T16:28:21.412Z,100.00
2022-12-17T16:31:25.397Z,100.00
2022-12-17T16:34:29.302Z,100.00
2022-12-17T16:37:34.592Z,100.00
2022-12-17T16:40:38.445Z,100.00
2022-12-17T16:43:42.256Z,100.00
2022-12-17T16:46:46.728Z,100.00
2022-12-17T16:49:51.852Z,100.00
2022-12-17T16:52:57.165Z,100.00
2022-12-17T16:56:00.935Z,100.00
2022-12-17T16:59:08.112Z,100.00
2022-12-17T17:02:14.436Z,100.00
2022-12-17T17:05:18.344Z,100.00
2022-12-17T17:08:23.541Z,100.00
2022-12-17T17:11:27.605Z,100.00
2022-12-17T17:14:31.531Z,100.00
2022-12-17T17:17:55.730Z,100.00
2022-12-17T17:21:14.882Z,100.00
2022-12-17T17:24:23.212Z,100.00
2022-12-17T17:27:27.141Z,100.00
2022-12-17T17:30:31.042Z,100.00
2022-12-17T17:33:38.839Z,100.00
2022-12-17T17:36:43.609Z,100.00
2022-12-17T17:39:48.968Z,100.00
2022-12-17T17:42:52.981Z,100.00
2022-12-17T17:45:57.271Z,100.00
2022-12-17T17:49:02.667Z,100.00
2022-12-17T17:52:09.948Z,100.00
2022-12-17T17:55:15.871Z,100.00
2022-12-17T17:58:19.734Z,100.00
2022-12-17T18:01:25.698Z,100.00
2022-12-17T18:04:29.758Z,100.00
2022-12-17T18:07:34.917Z,100.00
2022-12-17T18:10:40.176Z,100.00
2022-12-17T18:13:58.405Z,100.00
2022-12-17T18:17:02.251Z,100.00
2022-12-17T18:20:07.087Z,100.00
2022-12-17T18:23:11.175Z,100.00
2022-12-17T18:26:18.417Z,100.00
2022-12-17T18:29:24.216Z,100.00
2022-12-17T18:32:28.400Z,100.00
2022-12-17T18:35:32.294Z,100.00
2022-12-17T18:38:36.398Z,100.00
2022-12-17T18:41:59.985Z,100.00
2022-12-17T18:45:04.136Z,100.00
2022-12-17T18:48:08.492Z,100.00
2022-12-17T18:51:13.502Z,100.00
2022-12-17T18:54:19.542Z,100.00
2022-12-17T18:57:24.992Z,100.00
2022-12-17T19:00:28.833Z,100.00
2022-12-17T19:03:32.820Z,100.00
2022-12-17T19:06:38.672Z,100.00
2022-12-17T19:09:42.743Z,100.00
2022-12-17T19:12:47.830Z,100.00
2022-12-17T19:15:51.638Z,100.00
2022-12-17T19:18:56.959Z,100.00
2022-12-17T19:22:02.303Z,100.00
2022-12-17T19:25:06.835Z,100.00
2022-12-17T19:28:12.120Z,100.00
2022-12-17T19:31:17.093Z,100.00
2022-12-17T19:34:21.435Z,100.00
2022-12-17T19:37:25.256Z,100.00
2022-12-17T19:40:29.180Z,100.00
2022-12-17T19:43:34.552Z,100.00
2022-12-17T19:46:39.246Z,100.00
2022-12-17T19:49:44.069Z,100.00
2022-12-17T19:52:47.955Z,100.00
2022-12-17T19:55:52.329Z,100.00
2022-12-17T19:59:01.097Z,100.00
2022-12-17T20:02:05.346Z,100.00
2022-12-17T20:05:10.139Z,100.00
2022-12-17T20:08:17.042Z,100.00
2022-12-17T20:11:36.883Z,100.00
2022-12-17T20:14:42.029Z,100.00
2022-12-17T20:17:45.976Z,100.00
2022-12-17T20:20:49.776Z,100.00
2022-12-17T20:23:53.815Z,100.00
2022-12-17T20:26:57.817Z,100.00
2022-12-17T20:30:03.090Z,100.00
2022-12-17T20:33:06.890Z,100.00
2022-12-17T20:36:13.252Z,100.00
2022-12-17T20:39:20.717Z,100.00
2022-12-17T20:42:27.329Z,100.00
2022-12-17T20:45:32.895Z,100.00
2022-12-17T20:48:37.457Z,100.00
2022-12-17T20:51:41.737Z,100.00
2022-12-17T20:54:45.482Z,100.00
2022-12-17T20:57:49.312Z,100.00
2022-12-17T21:00:56.739Z,100.00
2022-12-17T21:04:01.216Z,100.00
2022-12-17T21:07:05.148Z,100.00
2022-12-17T21:10:09.387Z,100.00
2022-12-17T21:13:31.456Z,100.00
2022-12-17T21:16:38.005Z,100.00
2022-12-17T21:19:41.889Z,100.00
2022-12-17T21:22:45.717Z,100.00
2022-12-17T21:25:49.669Z,100.00
2022-12-17T21:28:56.695Z,100.00
2022-12-17T21:32:03.266Z,100.00
2022-12-17T21:35:07.896Z,100.00
2022-12-17T21:38:11.829Z,100.00
2022-12-17T21:41:17.841Z,100.00
2022-12-17T21:44:21.570Z,100.00
2022-12-17T21:47:27.296Z,100.00
2022-12-17T21:50:31.006Z,100.00
2022-12-17T21:53:35.493Z,100.00
2022-12-17T21:56:39.475Z,100.00
2022-12-17T21:59:43.489Z,100.00
2022-12-17T22:02:51.907Z,100.00
2022-12-17T22:05:55.836Z,100.00
2022-12-17T22:09:01.492Z,100.00
2022-12-17T22:12:24.769Z,100.00
2022-12-17T22:15:31.991Z,100.00
2022-12-17T22:18:45.610Z,100.00
2022-12-17T22:21:49.877Z,100.00
2022-12-17T22:24:53.795Z,100.00
2022-12-17T22:27:57.885Z,100.00
2022-12-17T22:31:23.255Z,100.00
2022-12-17T22:34:51.495Z,100.00
2022-12-17T22:39:29.538Z,100.00
2022-12-17T22:44:36.592Z,100.00
2022-12-17T22:45:04.124Z,100.00
2022-12-17T22:48:12.910Z,100.00
2022-12-17T22:51:22.186Z,100.00
2022-12-17T22:54:30.659Z,100.00
2022-12-17T22:57:38.210Z,100.00
2022-12-17T23:00:42.445Z,100.00
2022-12-17T23:03:46.413Z,100.00
2022-12-17T23:06:51.797Z,100.00
2022-12-17T23:09:56.014Z,100.00
2022-12-17T23:12:59.777Z,100.00
2022-12-17T23:16:04.047Z,100.00
2022-12-17T23:19:08.929Z,100.00
2022-12-17T23:22:20.438Z,100.00
2022-12-17T23:25:26.858Z,100.00
2022-12-17T23:28:30.886Z,100.00
2022-12-17T23:31:38.066Z,100.00
2022-12-17T23:34:42.095Z,100.00
2022-12-17T23:37:47.345Z,100.00
2022-12-17T23:40:51.158Z,100.00
2022-12-17T23:43:56.476Z,100.00
2022-12-17T23:47:00.312Z,100.00
2022-12-17T23:50:04.288Z,100.00
2022-12-17T23:53:09.578Z,100.00
2022-12-17T23:56:17.024Z,100.00
2022-12-17T23:59:20.943Z,100.00
